Flight Track Log - Related Links

Times and Time Zones

All times are in EDT time to prevent confusion due to time zone crossing. See the LAN461 flight status page for this flight to view local times or setup timezone preferences in your user account.


Time Position Orientation Groundspeed Altitude Reporting Facility
EDT Latitude Longitude Course Direction KTS MPH feet Rate Location/Type
Fri 05:42:46 PM -34.9880 -61.5940 92° East 467 537 35,000  Level FlightAware ADS-B
Fri 05:43:27 PM -34.9890 -61.5090 91° East 466 536 35,000  Level FlightAware ADS-B
Fri 05:44:21 PM -34.9940 -61.3510 92° East 465 535 35,000  Level FlightAware ADS-B
Fri 05:45:06 PM -34.9970 -61.2280 92° East 465 535 35,000  Level FlightAware ADS-B
Fri 05:45:46 PM -35.0000 -61.1240 92° East 465 535 35,000  Level FlightAware ADS-B
Fri 05:46:27 PM -35.0020 -61.0200 91° East 466 536 35,000  Level FlightAware ADS-B
Fri 05:47:11 PM -35.0050 -60.9030 92° East 467 537 35,000  Level FlightAware ADS-B
Fri 05:47:51 PM -35.0050 -60.8020 90° East 467 537 35,000  Level FlightAware ADS-B
Fri 05:48:36 PM -35.0080 -60.6910 92° East 468 539 35,000 -1,341 Level FlightAware ADS-B
Fri 05:49:16 PM -35.0110 -60.5700 92° East 466 536 33,100 -2,296 Descending FlightAware ADS-B
Fri 05:49:57 PM -35.0130 -60.4670 91° East 461 531 31,900 -1,909 Descending FlightAware ADS-B
Fri 05:50:44 PM -35.0150 -60.3410 91° East 454 522 30,300 -1,952 Descending FlightAware ADS-B
Fri 05:51:20 PM -35.0170 -60.2470 92° East 450 518 29,200 -1,807 Descending FlightAware ADS-B
Fri 05:52:07 PM -35.0190 -60.1330 91° East 443 510 27,800 -1,800 Descending FlightAware ADS-B
Fri 05:52:50 PM -35.0200 -60.0250 91° East 437 503 26,500 -1,880 Descending FlightAware ADS-B
Fri 05:53:30 PM -35.0220 -59.9270 91° East 432 497 25,200 -1,950 Descending FlightAware ADS-B
Fri 05:54:10 PM -35.0230 -59.8290 91° East 428 493 23,900 -1,929 Descending FlightAware ADS-B
Fri 05:54:54 PM -35.0240 -59.7250 91° East 423 487 22,500 -1,252 Descending FlightAware ADS-B
Fri 05:56:05 PM -35.0250 -59.5690 90° East 420 483 21,500 -1,947 Descending FlightAware ADS-B
Fri 05:56:48 PM -34.9950 -59.4590 72° East 418 481 18,800 -2,886 Descending FlightAware ADS-B
Fri 05:57:24 PM -34.9800 -59.3780 77° East 409 471 17,700 -1,875 Descending FlightAware ADS-B
Fri 05:58:08 PM -34.9630 -59.2810 78° East 399 459 16,300 -1,888 Descending FlightAware ADS-B
Fri 05:58:53 PM -34.9430 -59.1840 76° East 394 453 14,900 -1,703 Descending FlightAware ADS-B
Fri 05:59:22 PM -34.9120 -59.1320 54° Northeast 383 441 14,200 -1,569 Descending FlightAware ADS-B
Fri 05:59:58 PM -34.8600 -59.0960 30° Northeast 349 402 13,200 -2,122 Descending FlightAware ADS-B
Fri 06:00:44 PM -34.7960 -59.0540 28° Northeast 342 394 11,300 -2,195 Descending FlightAware ADS-B
Fri 06:01:20 PM -34.7460 -59.0230 27° Northeast 337 388 10,200 -1,594 Descending FlightAware ADS-B
Fri 06:01:48 PM -34.7060 -58.9990 26° Northeast 329 379 9,600 -1,393 Descending FlightAware ADS-B
Fri 06:02:16 PM -34.6690 -58.9760 27° Northeast 324 373 8,900 -1,286 Descending FlightAware ADS-B
Fri 06:02:44 PM -34.6320 -58.9530 27° Northeast 315 362 8,400 -1,071 Descending FlightAware ADS-B
Fri 06:03:12 PM -34.5960 -58.9300 28° Northeast 308 354 7,900 -1,200 Descending FlightAware ADS-B
Fri 06:03:24 PM -34.5800 -58.9210 25° Northeast 305 351 7,600 -1,050 Descending FlightAware ADS-B
Fri 06:03:52 PM -34.5470 -58.8990 29° Northeast 298 343 7,200 -1,071 Descending FlightAware ADS-B
Fri 06:04:20 PM -34.5110 -58.8780 26° Northeast 290 334 6,600 -1,179 Descending FlightAware ADS-B
Fri 06:04:48 PM -34.4790 -58.8580 27° Northeast 284 327 6,100 -964 Descending FlightAware ADS-B
Fri 06:05:16 PM -34.4460 -58.8380 27° Northeast 277 319 5,700 -931 Descending FlightAware ADS-B
Fri 06:05:46 PM -34.4130 -58.8170 28° Northeast 268 308 5,200 -724 Descending FlightAware ADS-B
Fri 06:06:14 PM -34.3820 -58.7980 27° Northeast 264 304 5,000 -222 Descending FlightAware ADS-B
Fri 06:06:40 PM -34.3550 -58.7810 27° Northeast 264 304 5,000  Level FlightAware ADS-B
Fri 06:06:56 PM -34.3420 -58.7630 49° Northeast 263 303 5,000 -231 Level FlightAware ADS-B
Fri 06:07:06 PM -34.3390 -58.7480 76° East 263 303 4,900 -900 Descending FlightAware ADS-B
Fri 06:07:36 PM -34.3550 -58.7110 118° Southeast 247 284 4,400 -1,241 Descending FlightAware ADS-B
Fri 06:08:04 PM -34.3790 -58.6830 136° Southeast 246 283 3,700 -1,220 Descending FlightAware ADS-B
Fri 06:08:35 PM -34.4020 -58.6540 134° Southeast 242 278 3,200 -1,000 Descending FlightAware ADS-B
Fri 06:08:58 PM -34.4190 -58.6300 131° Southeast 241 277 2,800 -941 Descending FlightAware ADS-B
Fri 06:09:26 PM -34.4390 -58.6020 131° Southeast 228 262 2,400 -652 Descending FlightAware ADS-B
Fri 06:09:44 PM -34.4510 -58.5850 131° Southeast 215 247 2,300 -130 Descending FlightAware ADS-B
Fri 06:10:12 PM -34.4710 -58.5650 140° Southeast 195 224 2,300 -343 Level FlightAware ADS-B
Fri 06:10:54 PM -34.4940 -58.5330 131° Southeast 166 191 1,900 -618 Descending FlightAware ADS-B
Fri 06:11:20 PM -34.5040 -58.5150 124° Southeast 149 171 1,600 -808 Descending FlightAware ADS-B
Fri 06:11:46 PM -34.5140 -58.4980 126° Southeast 132 152 1,200 -615 Descending FlightAware ADS-B
Fri 06:11:59 PM -34.5150 -58.4950 112° Southeast 131 151 1,200 -545 Level FlightAware ADS-B
Fri 06:12:30 PM -34.5280 -58.4710 123° Southeast 131 151 800 -814 Descending FlightAware ADS-B
Fri 06:12:58 PM -34.5370 -58.4550 124° Southeast 130 150 400 -750 Descending FlightAware ADS-B
Fri 06:13:26 PM -34.5470 -58.4380 126° Southeast 128 147 100 -321 Descending FlightAware ADS-B
Fri 06:13:54 PM -34.5550 -58.4240 125° Southeast 128 147 100  Level FlightAware ADS-B

Login

Don't have an account? Register now (free) for customized features, flight alerts, and more!